تكريت, العراق

07:02 AM AST on مارس 05, 2015 (GMT +0300)
Al Asad | Change Station
CLOSE
Current Station
Airport
Location: Al Asad,
Elevation: 617 ft
Nearby Weather Stations

Elev 617 ft 33.78 °N, 44.43 °E | Updated 7 minutes ago

Partly Cloudy
غائم جزئياً
54 °F
Feels Like 54 °F
N
0
ريح متغير ريح from شمال

هذا اليوم
High -- | Low -- °F
--% Chance of Precip.
Yesterday
High -- | Low -- °F
Precip. -- في
6:27 AM 6:01 PM
بدر, 100% visible
الضغط 30.06 في
وضوح الرؤية 6.2 أميال
سحابات Few 16000 ft
نقطة الندى 37 °F
الرطوبة 54%
Rainfall 0.00 في
عمق الثلج Not available.
الأشعة فوق البنفسجية 0 out of 12
Pollen Not available.
جودة الهواء Not available.
Flu Activity Not available.
METAR KQAJ 050355Z 00000KT 9999 FEW160 12/03 A3006 RMK SLP177 T01200029

More Conditions Fewer Conditions

الضغط 30.06 في
وضوح الرؤية 6.2 أميال
سحابات Few 16000 ft
نقطة الندى 37 °F
الرطوبة 54%
Rainfall 0.00 في
عمق الثلج Not available.
الأشعة فوق البنفسجية 0 out of 12
Pollen Not available.
جودة الهواء Not available.
Flu Activity Not available.
METAR KQAJ 050355Z 00000KT 9999 FEW160 12/03 A3006 RMK SLP177 T01200029

More Conditions Fewer Conditions

10-Day Weather Forecast

Almanac

علم الفلك

Mar. 05, 2015 Rise Set
Actual Time
Civil Twilight
Nautical Twilight
Astronomical Twilight
قمر
Length Of Visible Light
طول الیوم
Tomorrow will be .
, % of the Moon is Illuminated

Today's Extremes

Country Highs Country Lows

Community

WunderPhotos

Upload Photos

1,802,667 photos uploaded!

WunderBlogs® & News

Nearby

جودة الهواء

  جودة الهواء AQ Index Pollutant
Not available.

عمق الثلج

Station Depth Elevation

Earthquake Activity

City Distance Mag. Time & Date
Minimum magnitude displayed is 2.5.

Coastal Water Temperatures

مكان درجات الحرارة

Nearby Weather Stations